createdAt,value
2016-11-21T00:00:59.019Z,993.6
2016-11-21T00:02:14.094Z,993.6
2016-11-21T00:03:29.817Z,993.51
2016-11-21T00:04:46.292Z,993.46
2016-11-21T00:06:02.859Z,993.46
2016-11-21T00:07:17.294Z,993.43
2016-11-21T00:08:33.259Z,993.43
2016-11-21T00:09:49.796Z,993.44
2016-11-21T00:11:04.901Z,993.37
2016-11-21T00:12:20.672Z,993.41
2016-11-21T00:13:36.995Z,993.34
2016-11-21T00:14:52.515Z,993.36
2016-11-21T00:16:08.104Z,993.4
2016-11-21T00:17:24.255Z,993.43
2016-11-21T00:18:40.289Z,993.45
2016-11-21T00:19:56.876Z,993.45
2016-11-21T00:21:12.841Z,993.5
2016-11-21T00:22:28.753Z,993.55
2016-11-21T00:23:43.684Z,993.55
2016-11-21T00:25:00.803Z,993.53
2016-11-21T00:26:16.532Z,993.45
2016-11-21T00:27:32.305Z,993.46
2016-11-21T00:28:47.240Z,993.47
2016-11-21T00:30:02.339Z,993.48
2016-11-21T00:31:17.424Z,993.5
2016-11-21T00:32:32.432Z,993.45
2016-11-21T00:33:48.508Z,993.41
2016-11-21T00:35:02.493Z,993.4
2016-11-21T00:36:14.722Z,993.44
2016-11-21T00:37:28.570Z,993.42
2016-11-21T00:38:44.625Z,993.4
2016-11-21T00:39:59.741Z,993.36
2016-11-21T00:41:15.253Z,993.37
2016-11-21T00:42:31.229Z,993.37
2016-11-21T00:43:45.961Z,993.38
2016-11-21T00:45:01.988Z,993.36
2016-11-21T00:46:16.678Z,993.39
2016-11-21T00:47:33.672Z,993.35
2016-11-21T00:48:48.729Z,993.38
2016-11-21T00:50:04.855Z,993.39
2016-11-21T00:51:20.220Z,993.4
2016-11-21T00:52:36.241Z,993.35
2016-11-21T00:53:51.088Z,993.36
2016-11-21T00:55:07.019Z,993.36
2016-11-21T00:56:23.567Z,993.24
2016-11-21T00:57:39.708Z,993.25
2016-11-21T00:58:55.440Z,993.27
2016-11-21T01:00:10.202Z,993.25
2016-11-21T01:01:24.768Z,993.31
2016-11-21T01:02:41.350Z,993.31
2016-11-21T01:03:56.701Z,993.28
2016-11-21T01:05:13.633Z,993.31
2016-11-21T01:06:30.171Z,993.26
2016-11-21T01:07:43.236Z,993.29
2016-11-21T01:08:59.805Z,993.27
2016-11-21T01:10:14.699Z,993.33
2016-11-21T01:11:29.648Z,993.36
2016-11-21T01:12:45.709Z,993.37
2016-11-21T01:14:02.215Z,993.41
2016-11-21T01:15:17.710Z,993.4
2016-11-21T01:16:32.462Z,993.38
2016-11-21T01:17:48.792Z,993.41
2016-11-21T01:19:03.769Z,993.38
2016-11-21T01:20:18.493Z,993.38
2016-11-21T01:21:34.956Z,993.41
2016-11-21T01:22:51.088Z,993.41
2016-11-21T01:24:07.004Z,993.36
2016-11-21T01:25:21.996Z,993.36
2016-11-21T01:26:38.226Z,993.35
2016-11-21T01:27:52.895Z,993.32
2016-11-21T01:29:09.614Z,993.28
2016-11-21T01:30:26.298Z,993.26
2016-11-21T01:31:41.980Z,993.31
2016-11-21T01:32:58.265Z,993.28
2016-11-21T01:34:15.066Z,993.3
2016-11-21T01:35:29.070Z,993.27
2016-11-21T01:36:46.065Z,993.24
2016-11-21T01:37:59.545Z,993.2
2016-11-21T01:39:16.151Z,993.25
2016-11-21T01:40:31.172Z,993.24
2016-11-21T01:41:47.045Z,993.22
2016-11-21T01:43:02.938Z,993.24
2016-11-21T01:44:19.627Z,993.12
2016-11-21T01:45:35.942Z,993.22
2016-11-21T01:46:51.182Z,993.16
2016-11-21T01:48:08.283Z,993.16
2016-11-21T01:49:24.163Z,993.15
2016-11-21T01:50:40.887Z,993.15
2016-11-21T01:51:56.543Z,993.17
2016-11-21T01:53:13.304Z,993.18
2016-11-21T01:54:27.502Z,993.15
2016-11-21T01:55:43.209Z,993.16
2016-11-21T01:56:59.081Z,993.15
2016-11-21T01:58:15.139Z,993.18
2016-11-21T01:59:29.728Z,993.13
2016-11-21T02:00:45.846Z,993.17
2016-11-21T02:02:02.014Z,993.18
2016-11-21T02:03:18.128Z,993.15
2016-11-21T02:04:34.079Z,993.1
2016-11-21T02:05:48.829Z,993.14
2016-11-21T02:07:04.038Z,993.15
2016-11-21T02:08:20.539Z,993.15
2016-11-21T02:09:37.091Z,993.15
2016-11-21T02:10:51.750Z,993.14
2016-11-21T02:12:07.682Z,993.13
2016-11-21T02:13:24.372Z,993.15
2016-11-21T02:14:40.244Z,993.16
2016-11-21T02:15:56.388Z,993.09
2016-11-21T02:17:11.229Z,993.08
2016-11-21T02:18:25.815Z,993.07
2016-11-21T02:19:42.167Z,993.02
2016-11-21T02:20:58.515Z,992.98
2016-11-21T02:22:14.268Z,993.04
2016-11-21T02:23:30.799Z,993
2016-11-21T02:24:44.449Z,992.96
2016-11-21T02:25:56.629Z,992.98
2016-11-21T02:27:12.921Z,992.99
2016-11-21T02:28:28.260Z,993.05
2016-11-21T02:29:44.370Z,993.04
2016-11-21T02:30:59.400Z,993.05
2016-11-21T02:32:15.368Z,993.08
2016-11-21T02:33:31.479Z,993.07
2016-11-21T02:34:46.270Z,993.03
2016-11-21T02:36:01.915Z,993.06
2016-11-21T02:37:19.059Z,993.02
2016-11-21T02:38:35.062Z,993
2016-11-21T02:39:48.447Z,993.02
2016-11-21T02:41:04.750Z,993.02
2016-11-21T02:42:20.078Z,993.01
2016-11-21T02:43:36.211Z,993.01
2016-11-21T02:44:49.273Z,993.01
2016-11-21T02:46:03.721Z,993.05
2016-11-21T02:47:19.263Z,993.02
2016-11-21T02:48:35.314Z,992.98
2016-11-21T02:49:51.931Z,993
2016-11-21T02:51:05.295Z,992.97
2016-11-21T02:52:20.132Z,992.97
2016-11-21T02:53:33.762Z,992.99
2016-11-21T02:54:49.639Z,992.93
2016-11-21T02:56:05.132Z,993.04
2016-11-21T02:57:21.182Z,992.97
2016-11-21T02:58:38.229Z,992.94
2016-11-21T02:59:53.387Z,992.98
2016-11-21T03:01:09.278Z,992.93
2016-11-21T03:02:24.411Z,992.95
2016-11-21T03:03:40.452Z,992.93
2016-11-21T03:04:54.749Z,992.88
2016-11-21T03:06:11.780Z,992.93
2016-11-21T03:07:26.953Z,992.91
2016-11-21T03:08:41.310Z,992.94
2016-11-21T03:09:57.655Z,992.95
2016-11-21T03:11:12.314Z,992.98
2016-11-21T03:12:28.848Z,992.99
2016-11-21T03:13:45.115Z,992.95
2016-11-21T03:15:01.035Z,992.94
2016-11-21T03:16:16.833Z,992.93
2016-11-21T03:17:31.433Z,992.95
2016-11-21T03:18:44.602Z,993.01
2016-11-21T03:20:00.712Z,992.99
2016-11-21T03:21:17.445Z,992.96
2016-11-21T03:22:31.453Z,992.97
2016-11-21T03:23:46.373Z,992.99
2016-11-21T03:24:59.167Z,992.97
2016-11-21T03:26:14.232Z,993
2016-11-21T03:27:27.541Z,992.98
2016-11-21T03:28:43.988Z,992.99
2016-11-21T03:29:57.593Z,993.01
2016-11-21T03:31:12.722Z,992.96
2016-11-21T03:32:27.779Z,993.04
2016-11-21T03:33:42.285Z,993.01
2016-11-21T03:34:58.313Z,992.99
2016-11-21T03:36:12.972Z,992.96
2016-11-21T03:37:26.584Z,993.02
2016-11-21T03:38:42.931Z,992.98
2016-11-21T03:39:58.739Z,992.99
2016-11-21T03:41:15.614Z,992.98
2016-11-21T03:42:30.621Z,993.03
2016-11-21T03:43:45.938Z,993.01
2016-11-21T03:45:02.289Z,992.99
2016-11-21T03:46:16.984Z,993
2016-11-21T03:47:33.353Z,992.97
2016-11-21T03:48:50.084Z,992.93
2016-11-21T03:50:04.355Z,992.9
2016-11-21T03:51:19.590Z,992.92
2016-11-21T03:52:34.322Z,992.88
2016-11-21T03:53:50.870Z,992.92
2016-11-21T03:55:06.361Z,992.91
2016-11-21T03:56:22.669Z,992.9
2016-11-21T03:57:37.250Z,992.91
2016-11-21T03:58:51.923Z,992.95
2016-11-21T04:00:07.804Z,992.93
2016-11-21T04:01:24.739Z,992.96
2016-11-21T04:02:41.804Z,992.96
2016-11-21T04:03:55.026Z,992.95
2016-11-21T04:05:11.108Z,992.97
2016-11-21T04:06:27.650Z,992.9
2016-11-21T04:07:43.949Z,992.97
2016-11-21T04:09:00.640Z,993.01
2016-11-21T04:10:16.698Z,993.01
2016-11-21T04:11:32.444Z,993.02
2016-11-21T04:12:48.519Z,992.97
2016-11-21T04:14:03.590Z,992.99
2016-11-21T04:15:19.714Z,992.99
2016-11-21T04:16:35.771Z,993.04
2016-11-21T04:17:50.411Z,992.97
2016-11-21T04:19:04.215Z,992.99
2016-11-21T04:20:20.797Z,992.99
2016-11-21T04:21:37.634Z,993.06
2016-11-21T04:22:53.528Z,993.06
2016-11-21T04:24:09.407Z,993.08
2016-11-21T04:25:25.460Z,993.13
2016-11-21T04:26:42.141Z,993.13
2016-11-21T04:27:53.820Z,993.15
2016-11-21T04:29:05.962Z,993.14
2016-11-21T04:30:20.710Z,993.1
2016-11-21T04:31:35.124Z,993.15
2016-11-21T04:32:48.394Z,993.13
2016-11-21T04:34:03.337Z,993.14
2016-11-21T04:35:17.956Z,993.08
2016-11-21T04:36:34.393Z,993.08
2016-11-21T04:37:50.921Z,993.07
2016-11-21T04:39:06.621Z,993.1
2016-11-21T04:40:23.337Z,993.1
2016-11-21T04:41:39.988Z,993.12
2016-11-21T04:42:53.175Z,993.12
2016-11-21T04:44:07.944Z,993.11
2016-11-21T04:45:20.866Z,993.16
2016-11-21T04:46:35.704Z,993.18
2016-11-21T04:47:51.584Z,993.16
2016-11-21T04:49:07.310Z,993.13
2016-11-21T04:50:23.230Z,993.15
2016-11-21T04:51:39.390Z,993.18
2016-11-21T04:52:55.417Z,993.12
2016-11-21T04:54:11.857Z,993.14
2016-11-21T04:55:28.697Z,993.13
2016-11-21T04:56:43.603Z,993.13
2016-11-21T04:57:57.982Z,993.16
2016-11-21T04:59:12.885Z,993.15
2016-11-21T05:00:28.578Z,993.16
2016-11-21T05:01:44.633Z,993.13
2016-11-21T05:03:00.510Z,993.14
2016-11-21T05:04:17.408Z,993.17
2016-11-21T05:05:33.570Z,993.15
2016-11-21T05:06:48.406Z,993.19
2016-11-21T05:08:03.954Z,993.19
2016-11-21T05:09:19.014Z,993.2
2016-11-21T05:10:35.956Z,993.21
2016-11-21T05:11:52.580Z,993.27
2016-11-21T05:13:09.029Z,993.28
2016-11-21T05:14:24.143Z,993.26
2016-11-21T05:15:40.421Z,993.28
2016-11-21T05:16:57.037Z,993.26
2016-11-21T05:18:13.559Z,993.26
2016-11-21T05:19:30.427Z,993.27
2016-11-21T05:20:46.857Z,993.27
2016-11-21T05:22:01.738Z,993.27
2016-11-21T05:23:17.220Z,993.29
2016-11-21T05:24:32.229Z,993.27
2016-11-21T05:25:48.538Z,993.26
2016-11-21T05:27:04.743Z,993.22
2016-11-21T05:28:21.149Z,993.23
2016-11-21T05:29:34.667Z,993.25
2016-11-21T05:30:49.350Z,993.23
2016-11-21T05:32:05.847Z,993.23
2016-11-21T05:33:20.334Z,993.21
2016-11-21T05:34:33.313Z,993.24
2016-11-21T05:35:48.431Z,993.23
2016-11-21T05:37:03.521Z,993.24
2016-11-21T05:38:19.312Z,993.23
2016-11-21T05:39:36.381Z,993.22
2016-11-21T05:40:49.989Z,993.25
2016-11-21T05:42:06.268Z,993.22
2016-11-21T05:43:21.165Z,993.19
2016-11-21T05:44:36.429Z,993.2
2016-11-21T05:45:50.890Z,993.25
2016-11-21T05:47:05.763Z,993.22
2016-11-21T05:48:20.785Z,993.17
2016-11-21T05:49:36.842Z,993.2
2016-11-21T05:50:53.292Z,993.2
2016-11-21T05:52:06.520Z,993.2
2016-11-21T05:53:22.960Z,993.22
2016-11-21T05:54:38.023Z,993.19
2016-11-21T05:55:53.321Z,993.18
2016-11-21T05:57:07.822Z,993.21
2016-11-21T05:58:23.572Z,993.22
2016-11-21T05:59:38.495Z,993.22
2016-11-21T06:00:55.051Z,993.22
2016-11-21T06:02:09.558Z,993.24
2016-11-21T06:03:26.339Z,993.24
2016-11-21T06:04:41.818Z,993.25
2016-11-21T06:05:55.517Z,993.27
2016-11-21T06:07:11.757Z,993.2
2016-11-21T06:08:24.975Z,993.27
2016-11-21T06:09:39.591Z,993.23
2016-11-21T06:10:55.104Z,993.23
2016-11-21T06:12:11.392Z,993.21
2016-11-21T06:13:25.932Z,993.2
2016-11-21T06:14:41.402Z,993.23
2016-11-21T06:15:56.074Z,993.24
2016-11-21T06:17:09.327Z,993.21
2016-11-21T06:18:25.892Z,993.22
2016-11-21T06:19:40.585Z,993.25
2016-11-21T06:20:57.025Z,993.24
2016-11-21T06:22:12.191Z,993.25
2016-11-21T06:23:27.740Z,993.28
2016-11-21T06:24:42.075Z,993.31
2016-11-21T06:25:58.700Z,993.28
2016-11-21T06:27:13.175Z,993.25
2016-11-21T06:28:27.984Z,993.32
2016-11-21T06:29:45.013Z,993.32
2016-11-21T06:31:01.056Z,993.33
2016-11-21T06:32:15.981Z,993.32
2016-11-21T06:33:32.685Z,993.36
2016-11-21T06:34:46.943Z,993.35
2016-11-21T06:36:03.218Z,993.38
2016-11-21T06:37:17.569Z,993.35
2016-11-21T06:38:33.741Z,993.38
2016-11-21T06:39:48.423Z,993.4
2016-11-21T06:41:04.141Z,993.33
2016-11-21T06:42:18.852Z,993.33
2016-11-21T06:43:35.651Z,993.32
2016-11-21T06:44:51.724Z,993.26
2016-11-21T06:46:08.203Z,993.3
2016-11-21T06:47:24.789Z,993.28
2016-11-21T06:48:40.550Z,993.29
2016-11-21T06:49:55.387Z,993.3
2016-11-21T06:51:10.156Z,993.26
2016-11-21T06:52:27.246Z,993.24
2016-11-21T06:53:43.702Z,993.25
2016-11-21T06:54:58.256Z,993.24
2016-11-21T06:56:14.401Z,993.23
2016-11-21T06:57:31.312Z,993.25
2016-11-21T06:58:46.956Z,993.2
2016-11-21T07:00:02.771Z,993.22
2016-11-21T07:01:16.193Z,993.19
2016-11-21T07:02:32.260Z,993.24
2016-11-21T07:03:47.449Z,993.27
2016-11-21T07:05:04.316Z,993.27
2016-11-21T07:06:20.768Z,993.32
2016-11-21T07:07:35.707Z,993.3
2016-11-21T07:08:50.345Z,993.28
2016-11-21T07:10:04.929Z,993.3
2016-11-21T07:11:18.214Z,993.28
2016-11-21T07:12:33.871Z,993.26
2016-11-21T07:13:50.284Z,993.28
2016-11-21T07:15:04.546Z,993.32
2016-11-21T07:16:16.319Z,993.34
2016-11-21T07:17:32.601Z,993.36
2016-11-21T07:18:48.720Z,993.36
2016-11-21T07:20:05.301Z,993.38
2016-11-21T07:21:18.532Z,993.35
2016-11-21T07:22:34.595Z,993.34
2016-11-21T07:23:51.056Z,993.37
2016-11-21T07:25:05.741Z,993.38
2016-11-21T07:26:20.454Z,993.41
2016-11-21T07:27:36.506Z,993.45
2016-11-21T07:28:53.122Z,993.45
2016-11-21T07:30:07.855Z,993.48
2016-11-21T07:31:22.341Z,993.49
2016-11-21T07:32:35.791Z,993.47
2016-11-21T07:33:49.198Z,993.42
2016-11-21T07:35:05.620Z,993.48
2016-11-21T07:36:20.904Z,993.49
2016-11-21T07:37:37.230Z,993.47
2016-11-21T07:38:54.106Z,993.52
2016-11-21T07:40:09.012Z,993.45
2016-11-21T07:41:22.826Z,993.51
2016-11-21T07:42:38.716Z,993.48
2016-11-21T07:43:52.280Z,993.49
2016-11-21T07:45:08.152Z,993.47
2016-11-21T07:46:24.306Z,993.5
2016-11-21T07:47:41.068Z,993.54
2016-11-21T07:48:54.883Z,993.55
2016-11-21T07:50:10.956Z,993.56
2016-11-21T07:51:26.094Z,993.54
2016-11-21T07:52:42.428Z,993.58
2016-11-21T07:53:59.209Z,993.6
2016-11-21T07:55:15.496Z,993.58
2016-11-21T07:56:31.950Z,993.59
2016-11-21T07:57:47.583Z,993.58
2016-11-21T07:59:03.087Z,993.64
2016-11-21T08:00:18.954Z,993.61
2016-11-21T08:01:33.676Z,993.63
2016-11-21T08:02:49.978Z,993.66
2016-11-21T08:04:06.672Z,993.64
2016-11-21T08:05:22.956Z,993.67
2016-11-21T08:06:38.033Z,993.72
2016-11-21T08:07:52.657Z,993.7
2016-11-21T08:09:08.111Z,993.73
2016-11-21T08:10:21.721Z,993.69
2016-11-21T08:11:36.762Z,993.7
2016-11-21T08:12:53.298Z,993.73
2016-11-21T08:14:07.917Z,993.75
2016-11-21T08:15:24.322Z,993.75
2016-11-21T08:16:39.025Z,993.77
2016-11-21T08:17:54.695Z,993.79
2016-11-21T08:19:11.389Z,993.79
2016-11-21T08:20:28.533Z,993.78
2016-11-21T08:21:44.249Z,993.8
2016-11-21T08:23:00.713Z,993.81
2016-11-21T08:24:16.617Z,993.82
2016-11-21T08:25:32.906Z,993.8
2016-11-21T08:26:47.809Z,993.83
2016-11-21T08:28:00.885Z,993.77
2016-11-21T08:29:16.172Z,993.78
2016-11-21T08:30:31.375Z,993.8
2016-11-21T08:31:46.894Z,993.87
2016-11-21T08:33:01.512Z,993.87
2016-11-21T08:34:18.673Z,993.87
2016-11-21T08:35:35.005Z,993.87
2016-11-21T08:36:51.547Z,993.86
2016-11-21T08:38:07.838Z,993.87
2016-11-21T08:39:24.295Z,993.86
2016-11-21T08:40:39.760Z,993.89
2016-11-21T08:41:54.643Z,993.86
2016-11-21T08:43:10.051Z,993.92
2016-11-21T08:44:24.256Z,993.87
2016-11-21T08:45:40.825Z,993.85
2016-11-21T08:46:57.222Z,993.86
2016-11-21T08:48:13.362Z,993.88
2016-11-21T08:49:27.420Z,993.87
2016-11-21T08:50:42.543Z,993.87
2016-11-21T08:51:58.808Z,993.91
2016-11-21T08:53:15.285Z,993.85
2016-11-21T08:54:28.900Z,993.84
2016-11-21T08:55:45.186Z,993.86
2016-11-21T08:57:01.542Z,993.88
2016-11-21T08:58:16.809Z,993.85
2016-11-21T08:59:33.742Z,993.84
2016-11-21T09:00:48.419Z,993.83
2016-11-21T09:02:03.269Z,993.84
2016-11-21T09:03:20.004Z,993.88
2016-11-21T09:04:35.038Z,993.9
2016-11-21T09:05:51.364Z,993.89
2016-11-21T09:07:07.915Z,993.87
2016-11-21T09:08:24.610Z,993.95
2016-11-21T09:09:40.780Z,993.92
2016-11-21T09:10:55.631Z,993.96
2016-11-21T09:12:10.650Z,993.93
2016-11-21T09:13:26.365Z,993.96
2016-11-21T09:14:42.340Z,994
2016-11-21T09:15:56.953Z,994
2016-11-21T09:17:12.582Z,994.01
2016-11-21T09:18:29.533Z,994
2016-11-21T09:19:46.055Z,994.03
2016-11-21T09:21:00.878Z,994.09
2016-11-21T09:22:16.765Z,994.02
2016-11-21T09:23:33.316Z,994.13
2016-11-21T09:24:46.688Z,994.15
2016-11-21T09:26:03.236Z,994.09
2016-11-21T09:27:17.927Z,994.13
2016-11-21T09:28:34.891Z,994.17
2016-11-21T09:29:47.712Z,994.18
2016-11-21T09:31:03.699Z,994.19
2016-11-21T09:32:18.236Z,994.22
2016-11-21T09:33:30.159Z,994.22
2016-11-21T09:34:45.240Z,994.22
2016-11-21T09:35:59.304Z,994.27
2016-11-21T09:37:14.383Z,994.28
2016-11-21T09:38:28.179Z,994.27
2016-11-21T09:39:45.173Z,994.17
2016-11-21T09:41:02.074Z,994.24
2016-11-21T09:42:18.427Z,994.27
2016-11-21T09:43:35.113Z,994.27
2016-11-21T09:44:51.566Z,994.26
2016-11-21T09:46:08.720Z,994.31
2016-11-21T09:47:24.335Z,994.28
2016-11-21T09:48:40.412Z,994.28
2016-11-21T09:49:55.127Z,994.27
2016-11-21T09:51:11.128Z,994.28
2016-11-21T09:52:27.168Z,994.28
2016-11-21T09:53:42.396Z,994.29
2016-11-21T09:54:55.999Z,994.33
2016-11-21T09:56:12.363Z,994.38
2016-11-21T09:57:28.567Z,994.29
2016-11-21T09:58:45.104Z,994.23
2016-11-21T09:59:59.903Z,994.27
2016-11-21T10:01:13.880Z,994.31
2016-11-21T10:02:28.488Z,994.22
2016-11-21T10:03:45.150Z,994.26
2016-11-21T10:05:01.591Z,994.28
2016-11-21T10:06:16.431Z,994.3
2016-11-21T10:07:32.744Z,994.24
2016-11-21T10:08:49.516Z,994.31
2016-11-21T10:10:05.618Z,994.32
2016-11-21T10:11:21.705Z,994.3
2016-11-21T10:12:36.198Z,994.23
2016-11-21T10:13:51.046Z,994.22
2016-11-21T10:15:07.366Z,994.23
2016-11-21T10:16:23.115Z,994.2
2016-11-21T10:17:40.240Z,994.2
2016-11-21T10:18:54.519Z,994.23
2016-11-21T10:20:08.786Z,994.16
2016-11-21T10:21:20.592Z,994.17
2016-11-21T10:22:34.917Z,994.23
2016-11-21T10:23:51.283Z,994.23
2016-11-21T10:25:08.439Z,994.21
2016-11-21T10:26:24.763Z,994.16
2016-11-21T10:27:39.816Z,994.16
2016-11-21T10:28:51.906Z,994.2
2016-11-21T10:30:07.560Z,994.22
2016-11-21T10:31:22.624Z,994.13
2016-11-21T10:32:37.701Z,994.11
2016-11-21T10:33:53.114Z,994.19
2016-11-21T10:35:10.248Z,994.24
2016-11-21T10:36:26.385Z,994.21
2016-11-21T10:37:42.985Z,994.21
2016-11-21T10:38:59.689Z,994.22
2016-11-21T10:40:14.552Z,994.18
2016-11-21T10:41:26.327Z,994.21
2016-11-21T10:42:43.056Z,994.14
2016-11-21T10:43:57.776Z,994.13
2016-11-21T10:45:13.936Z,994.13
2016-11-21T10:46:30.253Z,994.12
2016-11-21T10:47:45.665Z,994.03
2016-11-21T10:49:01.788Z,994.03
2016-11-21T10:50:16.535Z,994.02
2016-11-21T10:51:30.816Z,994.01
2016-11-21T10:52:47.351Z,993.99
2016-11-21T10:54:03.481Z,993.99
2016-11-21T10:55:20.055Z,993.95
2016-11-21T10:56:33.530Z,993.94
2016-11-21T10:57:48.248Z,993.95
2016-11-21T10:59:04.683Z,993.92
2016-11-21T11:00:21.341Z,993.91
2016-11-21T11:01:36.799Z,993.87
2016-11-21T11:02:51.302Z,993.84
2016-11-21T11:04:07.358Z,993.84
2016-11-21T11:05:23.666Z,993.8
2016-11-21T11:06:38.867Z,993.79
2016-11-21T11:07:55.156Z,993.82
2016-11-21T11:09:11.164Z,993.84
2016-11-21T11:10:27.887Z,993.84
2016-11-21T11:11:43.923Z,993.82
2016-11-21T11:13:00.140Z,993.81
2016-11-21T11:14:16.217Z,993.77
2016-11-21T11:15:32.529Z,993.74
2016-11-21T11:16:48.627Z,993.72
2016-11-21T11:18:03.770Z,993.68
2016-11-21T11:19:18.378Z,993.68
2016-11-21T11:20:32.908Z,993.7
2016-11-21T11:21:48.903Z,993.61
2016-11-21T11:23:05.054Z,993.65
2016-11-21T11:24:21.301Z,993.64
2016-11-21T11:25:36.135Z,993.63
2016-11-21T11:26:50.408Z,993.65
2016-11-21T11:28:05.011Z,993.64
2016-11-21T11:29:20.092Z,993.64
2016-11-21T11:30:34.525Z,993.64
2016-11-21T11:31:51.091Z,993.7
2016-11-21T11:33:05.659Z,993.63
2016-11-21T11:34:22.103Z,993.62
2016-11-21T11:35:38.643Z,993.63
2016-11-21T11:36:54.365Z,993.6
2016-11-21T11:38:11.043Z,993.6
2016-11-21T11:39:27.673Z,993.54
2016-11-21T11:40:42.902Z,993.66
2016-11-21T11:41:58.923Z,993.52
2016-11-21T11:43:15.696Z,993.53
2016-11-21T11:44:29.993Z,993.45
2016-11-21T11:45:44.756Z,993.45
2016-11-21T11:47:00.871Z,993.48
2016-11-21T11:48:15.635Z,993.42
2016-11-21T11:49:30.225Z,993.39
2016-11-21T11:50:45.567Z,993.41
2016-11-21T11:52:02.341Z,993.38
2016-11-21T11:53:16.889Z,993.33
2016-11-21T11:54:31.332Z,993.41
2016-11-21T11:55:46.964Z,993.48
2016-11-21T11:57:02.976Z,993.5
2016-11-21T11:58:19.342Z,993.45
2016-11-21T11:59:34.721Z,993.51
2016-11-21T12:00:51.174Z,993.41
2016-11-21T12:02:05.784Z,993.4
2016-11-21T12:03:22.167Z,993.49
2016-11-21T12:04:37.299Z,993.51
2016-11-21T12:05:53.857Z,993.47
2016-11-21T12:07:10.042Z,993.45
2016-11-21T12:08:26.038Z,993.5
2016-11-21T12:09:39.776Z,993.52
2016-11-21T12:10:54.835Z,993.51
2016-11-21T12:12:11.104Z,993.48
2016-11-21T12:13:25.954Z,993.51
2016-11-21T12:14:39.211Z,993.52
2016-11-21T12:15:55.362Z,993.51
2016-11-21T12:17:10.324Z,993.52
2016-11-21T12:18:26.300Z,993.54
2016-11-21T12:19:42.755Z,993.52
2016-11-21T12:20:59.064Z,993.54
2016-11-21T12:22:11.037Z,993.48
2016-11-21T12:23:25.486Z,993.52
2016-11-21T12:24:40.366Z,993.49
2016-11-21T12:25:57.140Z,993.5
2016-11-21T12:27:11.856Z,993.42
2016-11-21T12:28:26.573Z,993.43
2016-11-21T12:29:42.915Z,993.4
2016-11-21T12:30:59.104Z,993.33
2016-11-21T12:32:15.555Z,993.32
2016-11-21T12:33:31.386Z,993.32
2016-11-21T12:34:47.973Z,993.29
2016-11-21T12:36:02.262Z,993.26
2016-11-21T12:37:18.750Z,993.22
2016-11-21T12:38:35.300Z,993.2
2016-11-21T12:39:50.446Z,993.19
2016-11-21T12:41:06.195Z,993.15
2016-11-21T12:42:22.384Z,993.12
2016-11-21T12:43:36.877Z,993.09
2016-11-21T12:44:51.302Z,993.12
2016-11-21T12:46:07.052Z,993.12
2016-11-21T12:47:23.340Z,993.06
2016-11-21T12:48:39.609Z,993.02
2016-11-21T12:49:56.561Z,993.06
2016-11-21T12:51:12.730Z,993.04
2016-11-21T12:52:28.608Z,993.06
2016-11-21T12:53:44.607Z,993.11
2016-11-21T12:54:57.978Z,993.13
2016-11-21T12:56:11.592Z,993.09
2016-11-21T12:57:28.468Z,993.06
2016-11-21T12:58:43.000Z,993.06
2016-11-21T12:59:57.596Z,993
2016-11-21T13:01:13.874Z,993.02
2016-11-21T13:02:30.980Z,993.03
2016-11-21T13:03:47.146Z,993.07
2016-11-21T13:05:02.016Z,993.06
2016-11-21T13:06:16.851Z,993.04
2016-11-21T13:07:32.499Z,993.07
2016-11-21T13:08:49.491Z,993.05
2016-11-21T13:10:06.630Z,993.09
2016-11-21T13:11:21.811Z,993
2016-11-21T13:12:39.044Z,993
2016-11-21T13:13:54.517Z,992.99
2016-11-21T13:15:10.818Z,992.97
2016-11-21T13:16:25.688Z,993.03
2016-11-21T13:17:42.025Z,993.01
2016-11-21T13:18:58.672Z,992.97
2016-11-21T13:20:12.236Z,993.03
2016-11-21T13:21:27.700Z,992.98
2016-11-21T13:22:41.760Z,992.98
2016-11-21T13:23:53.758Z,993.03
2016-11-21T13:25:10.071Z,993.02
2016-11-21T13:26:26.855Z,993.03
2016-11-21T13:27:43.305Z,993.02
2016-11-21T13:28:58.774Z,992.98
2016-11-21T13:30:12.013Z,992.92
2016-11-21T13:31:26.592Z,992.91
2016-11-21T13:32:43.343Z,992.87
2016-11-21T13:33:58.250Z,992.82
2016-11-21T13:35:12.987Z,992.8
2016-11-21T13:36:29.360Z,992.8
2016-11-21T13:37:44.642Z,992.73
2016-11-21T13:38:59.238Z,992.76
2016-11-21T13:40:12.505Z,992.71
2016-11-21T13:41:27.353Z,992.75
2016-11-21T13:42:41.756Z,992.7
2016-11-21T13:43:58.537Z,992.68
2016-11-21T13:45:12.472Z,992.71
2016-11-21T13:46:27.391Z,992.67
2016-11-21T13:47:42.535Z,992.77
2016-11-21T13:48:58.019Z,992.72
2016-11-21T13:50:14.001Z,992.76
2016-11-21T13:51:28.769Z,992.74
2016-11-21T13:52:45.237Z,992.8
2016-11-21T13:53:58.894Z,992.71
2016-11-21T13:55:14.223Z,992.71
2016-11-21T13:56:29.950Z,992.68
2016-11-21T13:57:44.910Z,992.64
2016-11-21T13:59:00.297Z,992.67
2016-11-21T14:00:17.129Z,992.63
2016-11-21T14:01:34.256Z,992.55
2016-11-21T14:02:48.259Z,992.54
2016-11-21T14:04:03.485Z,992.56
2016-11-21T14:05:19.313Z,992.51
2016-11-21T14:06:32.634Z,992.55
2016-11-21T14:07:47.337Z,992.57
2016-11-21T14:09:03.096Z,992.59
2016-11-21T14:10:16.151Z,992.57
2016-11-21T14:11:32.340Z,992.56
2016-11-21T14:12:46.979Z,992.51
2016-11-21T14:14:02.208Z,992.6
2016-11-21T14:15:16.895Z,992.6
2016-11-21T14:16:32.646Z,992.66
2016-11-21T14:17:47.755Z,992.65
2016-11-21T14:19:04.750Z,992.72
2016-11-21T14:20:21.119Z,992.73
2016-11-21T14:21:36.801Z,992.68
2016-11-21T14:22:49.880Z,992.7
2016-11-21T14:24:03.498Z,992.7
2016-11-21T14:25:20.636Z,992.69
2016-11-21T14:26:36.127Z,992.63
2016-11-21T14:27:52.224Z,992.59
2016-11-21T14:29:07.561Z,992.56
2016-11-21T14:30:24.502Z,992.56
2016-11-21T14:31:37.733Z,992.61
2016-11-21T14:32:54.171Z,992.57
2016-11-21T14:34:09.267Z,992.58
2016-11-21T14:35:25.852Z,992.59
2016-11-21T14:36:42.027Z,992.59
2016-11-21T14:37:58.397Z,992.57
2016-11-21T14:39:14.482Z,992.56
2016-11-21T14:40:31.444Z,992.51
2016-11-21T14:41:47.974Z,992.51
2016-11-21T14:43:04.951Z,992.57
2016-11-21T14:44:21.516Z,992.53
2016-11-21T14:45:37.444Z,992.51
2016-11-21T14:46:52.788Z,992.52
2016-11-21T14:48:05.792Z,992.48
2016-11-21T14:49:19.245Z,992.53
2016-11-21T14:50:35.655Z,992.52
2016-11-21T14:51:52.571Z,992.54
2016-11-21T14:53:07.880Z,992.49
2016-11-21T14:54:23.871Z,992.43
2016-11-21T14:55:38.699Z,992.46
2016-11-21T14:56:53.612Z,992.53
2016-11-21T14:58:09.910Z,992.36
2016-11-21T14:59:24.933Z,992.34
2016-11-21T15:00:40.986Z,992.28
2016-11-21T15:01:56.256Z,992.25
2016-11-21T15:03:11.012Z,992.21
2016-11-21T15:04:26.669Z,992.17
2016-11-21T15:05:43.396Z,992.13
2016-11-21T15:06:59.946Z,992.1
2016-11-21T15:08:13.171Z,992.16
2016-11-21T15:09:28.512Z,992.06
2016-11-21T15:10:44.996Z,992.07
2016-11-21T15:12:00.983Z,992.09
2016-11-21T15:13:17.238Z,992.03
2016-11-21T15:14:32.465Z,992.08
2016-11-21T15:15:48.493Z,992.08
2016-11-21T15:17:02.371Z,992.06
2016-11-21T15:18:19.334Z,992
2016-11-21T15:19:32.902Z,991.99
2016-11-21T15:20:48.711Z,991.96
2016-11-21T15:22:04.857Z,991.99
2016-11-21T15:23:19.451Z,991.99
2016-11-21T15:24:35.723Z,991.99
2016-11-21T15:25:51.630Z,991.98
2016-11-21T15:27:08.614Z,992.02
2016-11-21T15:28:24.731Z,992.01
2016-11-21T15:29:40.767Z,992.08
2016-11-21T15:30:55.706Z,992.13
2016-11-21T15:32:12.571Z,992.08
2016-11-21T15:33:28.302Z,991.96
2016-11-21T15:34:43.561Z,992
2016-11-21T15:35:58.808Z,991.9
2016-11-21T15:37:13.739Z,991.88
2016-11-21T15:38:30.899Z,991.92
2016-11-21T15:39:47.864Z,991.87
2016-11-21T15:41:03.065Z,991.9
2016-11-21T15:42:16.127Z,991.91
2016-11-21T15:43:32.882Z,991.93
2016-11-21T15:44:47.554Z,991.92
2016-11-21T15:46:01.860Z,991.91